Time;durP1;ratioP1;P1;durP2;ratioP2;P2;SDS_P1;SDS_P2;PMS_P1;PMS_P2;Temp;Humidity;BMP_temperature;BMP_pressure;BME280_temperature;BME280_humidity;BME280_pressure;Samples;Min_cycle;Max_cycle;Signal;HPM_P1;HPM_P2
2020/12/13 00:00:38;;;;;;;26.30;14.00;;;;;;;3.84;73.57;99485.65;124495;1095;104540;-73
2020/12/13 00:03:07;;;;;;;22.93;13.43;;;;;;;3.85;74.04;99476.75;124466;1095;104596;-73
2020/12/13 00:05:35;;;;;;;26.90;15.60;;;;;;;3.88;73.87;99474.69;124540;1095;104560;-73
2020/12/13 00:08:03;;;;;;;28.47;15.53;;;;;;;3.96;74.31;99481.96;124503;1095;104573;-72
2020/12/13 00:10:32;;;;;;;37.33;23.13;;;;;;;4.04;74.06;99482.17;124614;1095;104599;-73
2020/12/13 00:13:00;;;;;;;43.83;26.57;;;;;;;4.07;74.31;99483.70;124474;1097;104922;-71
2020/12/13 00:15:28;;;;;;;61.40;44.25;;;;;;;4.10;73.73;99486.09;124505;1095;104586;-73
2020/12/13 00:17:56;;;;;;;41.77;24.87;;;;;;;4.13;73.62;99485.81;124552;1095;104592;-72
2020/12/13 00:20:24;;;;;;;34.60;18.73;;;;;;;4.15;74.27;99491.80;124538;1095;104558;-73
2020/12/13 00:22:53;;;;;;;26.15;15.80;;;;;;;4.18;74.13;99496.83;124473;1095;104592;-70
2020/12/13 00:25:21;;;;;;;31.47;17.27;;;;;;;4.21;73.87;99493.91;124525;1096;104509;-74
2020/12/13 00:27:49;;;;;;;32.57;18.10;;;;;;;4.22;74.20;99500.05;124576;1095;104956;-73
2020/12/13 00:30:18;;;;;;;32.47;17.10;;;;;;;4.27;74.00;99503.97;124512;1095;104555;-73
2020/12/13 00:32:46;;;;;;;31.25;17.75;;;;;;;4.31;73.91;99497.45;124544;1096;104503;-72
2020/12/13 00:35:15;;;;;;;34.90;18.93;;;;;;;4.30;73.38;99508.14;124561;1095;104605;-71
2020/12/13 00:37:43;;;;;;;35.63;18.30;;;;;;;4.28;73.96;99502.98;124560;1095;104663;-71
2020/12/13 00:40:11;;;;;;;30.20;16.45;;;;;;;4.27;73.47;99506.61;124541;1095;104593;-72
2020/12/13 00:42:39;;;;;;;23.37;14.23;;;;;;;4.26;73.90;99507.56;124585;1095;104933;-72
2020/12/13 00:45:07;;;;;;;31.27;16.30;;;;;;;4.29;73.97;99517.88;124628;1095;104567;-69
2020/12/13 00:47:36;;;;;;;27.73;15.77;;;;;;;4.35;73.83;99510.38;124516;1095;105037;-73
2020/12/13 00:50:04;;;;;;;30.47;16.67;;;;;;;4.36;73.94;99512.90;124524;1095;104602;-71
2020/12/13 00:52:33;;;;;;;30.17;16.73;;;;;;;4.35;73.97;99516.52;124497;1095;104602;-72
2020/12/13 00:55:01;;;;;;;31.15;16.95;;;;;;;4.37;73.61;99517.23;124524;1095;104506;-71
2020/12/13 00:57:30;;;;;;;31.95;18.10;;;;;;;4.41;73.73;99512.52;124513;1095;104644;-74
2020/12/13 00:59:58;;;;;;;25.60;14.50;;;;;;;4.39;73.67;99515.29;124676;1095;104558;-71
2020/12/13 01:02:26;;;;;;;25.03;13.33;;;;;;;4.36;73.70;99510.26;124474;1095;104487;-72
2020/12/13 01:04:55;;;;;;;28.33;16.27;;;;;;;4.34;73.82;99506.91;124549;1095;104522;-72
2020/12/13 01:07:23;;;;;;;29.13;15.73;;;;;;;4.35;73.67;99511.24;124626;1095;104666;-72
2020/12/13 01:09:51;;;;;;;29.50;18.20;;;;;;;4.36;73.63;99512.06;124609;1095;104599;-72
2020/12/13 01:12:19;;;;;;;32.57;17.07;;;;;;;4.36;73.67;99512.90;124644;1097;104914;-73
2020/12/13 01:14:47;;;;;;;32.67;20.33;;;;;;;4.36;73.70;99517.35;124628;1095;104499;-72
2020/12/13 01:17:15;;;;;;;30.95;18.05;;;;;;;4.32;73.83;99520.24;124594;1095;104651;-74
2020/12/13 01:19:47;;;;;;;27.33;15.53;;;;;;;4.29;73.39;99523.16;124574;1095;104583;-72
2020/12/13 01:22:15;;;;;;;23.05;13.00;;;;;;;4.30;73.75;99516.90;124621;1095;104496;-74
2020/12/13 01:24:43;;;;;;;26.10;14.53;;;;;;;4.32;73.63;99528.16;124587;1095;104583;-73
2020/12/13 01:27:11;;;;;;;25.17;14.27;;;;;;;4.37;73.91;99526.94;124592;1095;104644;-73
2020/12/13 01:29:39;;;;;;;25.83;14.83;;;;;;;4.44;73.79;99538.66;124606;1095;104583;-74
2020/12/13 01:32:08;;;;;;;27.90;15.60;;;;;;;4.45;73.91;99533.25;124590;1095;104493;-74
2020/12/13 01:34:36;;;;;;;27.27;15.87;;;;;;;4.46;73.52;99528.79;124485;1095;104592;-75
2020/12/13 01:37:04;;;;;;;24.23;14.93;;;;;;;4.44;73.65;99533.38;124686;1095;104647;-72
2020/12/13 01:39:33;;;;;;;27.60;15.00;;;;;;;4.43;73.79;99531.72;124612;1095;104596;-72
2020/12/13 01:42:01;;;;;;;33.37;19.07;;;;;;;4.40;73.80;99540.72;124607;1095;104598;-74
2020/12/13 01:44:34;;;;;;;23.60;12.83;;;;;;;4.39;73.67;99535.56;124614;1095;104560;-73
2020/12/13 01:47:04;;;;;;;24.40;13.57;;;;;;;4.42;73.70;99543.23;124533;1095;104628;-73
2020/12/13 01:49:35;;;;;;;23.67;14.13;;;;;;;4.42;73.81;99543.23;124629;1095;104548;-72
2020/12/13 01:54:51;;;;;;;23.93;13.90;;;;;;;4.41;73.69;99546.86;124590;1095;104625;-72
2020/12/13 01:57:21;;;;;;;85.70;38.50;;;;;;;4.42;73.50;99543.23;124640;1095;104638;-72
2020/12/13 01:59:52;;;;;;;58.50;26.37;;;;;;;4.38;73.64;99539.19;124328;1096;104647;-72
2020/12/13 02:02:27;;;;;;;37.00;16.90;;;;;;;4.36;73.59;99538.48;124651;1095;104571;-73
2020/12/13 02:05:00;;;;;;;47.97;23.40;;;;;;;4.32;73.45;99538.73;124655;1097;104609;-73
2020/12/13 02:07:28;;;;;;;28.97;15.73;;;;;;;4.33;73.47;99544.88;124518;1095;104484;-73
2020/12/13 02:09:56;;;;;;;26.47;14.07;;;;;;;4.29;73.41;99544.30;124513;1095;104668;-71
2020/12/13 02:12:25;;;;;;;43.20;27.03;;;;;;;4.26;73.72;99541.90;124602;1095;104519;-71
2020/12/13 02:14:53;;;;;;;28.23;15.70;;;;;;;4.25;73.47;99549.95;124481;1095;105043;-73
2020/12/13 02:17:21;;;;;;;32.07;18.37;;;;;;;4.23;73.58;99539.51;124654;1095;104656;-72
2020/12/13 02:19:50;;;;;;;50.73;33.30;;;;;;;4.24;73.77;99541.19;124558;1095;104520;-72
2020/12/13 02:22:21;;;;;;;42.30;27.45;;;;;;;4.23;73.40;99543.95;124605;1095;104633;-73
2020/12/13 02:24:49;;;;;;;26.27;15.73;;;;;;;4.21;74.19;99545.89;124602;1095;104596;-72
2020/12/13 02:27:17;;;;;;;34.47;22.10;;;;;;;4.19;73.56;99547.83;124498;1095;104646;-73
2020/12/13 02:29:45;;;;;;;42.37;29.93;;;;;;;4.19;73.68;99542.55;124337;1095;104576;-72
2020/12/13 02:32:13;;;;;;;28.20;16.17;;;;;;;4.21;73.39;99548.53;124552;1095;104525;-73
2020/12/13 02:34:42;;;;;;;26.73;14.77;;;;;;;4.22;74.09;99537.02;124527;1095;104583;-71
2020/12/13 02:37:11;;;;;;;24.10;14.53;;;;;;;4.25;73.78;99536.74;124639;1095;104954;-71
2020/12/13 02:39:39;;;;;;;26.55;14.55;;;;;;;4.25;73.56;99544.66;124491;1095;104662;-73
2020/12/13 02:42:08;;;;;;;20.70;12.23;;;;;;;4.24;73.68;99543.83;124493;1095;104525;-72
2020/12/13 02:44:36;;;;;;;20.40;11.43;;;;;;;4.24;73.88;99541.19;124489;1095;104558;-73
2020/12/13 02:47:04;;;;;;;19.60;11.83;;;;;;;4.26;73.72;99541.90;124614;1095;104630;-74
2020/12/13 02:49:33;;;;;;;20.40;12.67;;;;;;;4.28;73.57;99542.60;124602;1095;104714;-71
2020/12/13 02:52:01;;;;;;;21.40;11.80;;;;;;;4.30;73.59;99545.95;124484;1095;104936;-73
2020/12/13 02:54:29;;;;;;;21.45;13.25;;;;;;;4.31;73.66;99541.49;124629;1095;104581;-73
2020/12/13 02:56:57;;;;;;;24.83;13.77;;;;;;;4.28;73.50;99542.60;124654;1095;104679;-73
2020/12/13 02:59:26;;;;;;;27.17;15.03;;;;;;;4.26;73.76;99548.99;124538;1095;104612;-72
2020/12/13 03:01:54;;;;;;;35.00;16.37;;;;;;;4.24;73.67;99549.12;124554;1095;104557;-72
2020/12/13 03:04:22;;;;;;;29.87;14.23;;;;;;;4.25;74.29;99552.59;124643;1095;104637;-72
2020/12/13 03:06:50;;;;;;;24.00;13.47;;;;;;;4.24;73.84;99564.13;124624;1096;104605;-72
2020/12/13 03:09:18;;;;;;;26.90;14.87;;;;;;;4.26;73.91;99559.55;124478;1097;104591;-74
2020/12/13 03:11:47;;;;;;;40.17;18.40;;;;;;;4.29;73.70;99561.92;124453;1096;104576;-73
2020/12/13 03:14:15;;;;;;;45.60;18.90;;;;;;;4.29;73.81;99554.86;124557;1095;104510;-72
2020/12/13 03:16:43;;;;;;;34.83;17.40;;;;;;;4.30;73.46;99555.69;124630;1095;104590;-73
2020/12/13 03:19:11;;;;;;;28.13;14.80;;;;;;;4.28;73.72;99561.09;124539;1095;104887;-73
2020/12/13 03:21:39;;;;;;;22.47;11.87;;;;;;;4.28;73.48;99563.73;124601;1096;105023;-72
2020/12/13 03:24:09;;;;;;;21.43;11.87;;;;;;;4.28;73.87;99563.73;124580;1095;104486;-73
2020/12/13 03:26:37;;;;;;;21.05;12.95;;;;;;;4.27;73.46;99563.85;124546;1095;104666;-72
2020/12/13 03:29:05;;;;;;;27.27;14.03;;;;;;;4.25;73.45;99571.94;124575;1095;104682;-71
2020/12/13 03:31:33;;;;;;;42.85;19.00;;;;;;;4.26;73.47;99570.95;124502;1095;104624;-71
2020/12/13 03:34:01;;;;;;;26.90;14.87;;;;;;;4.29;73.93;99573.34;124482;1095;104551;-73
2020/12/13 03:36:30;;;;;;;26.47;13.83;;;;;;;4.27;73.62;99577.92;124576;1095;104624;-74
2020/12/13 03:38:58;;;;;;;23.60;14.27;;;;;;;4.26;73.59;99575.40;124481;1095;104567;-71
2020/12/13 03:41:26;;;;;;;20.07;11.67;;;;;;;4.25;73.82;99587.78;124579;1095;104561;-73
2020/12/13 03:43:54;;;;;;;17.53;10.37;;;;;;;4.26;73.56;99588.60;124490;1095;104614;-72
2020/12/13 03:46:23;;;;;;;19.70;11.13;;;;;;;4.28;73.87;99584.86;124552;1095;104643;-74
2020/12/13 03:48:51;;;;;;;17.97;11.83;;;;;;;4.29;73.42;99589.19;124489;1095;104627;-72
2020/12/13 03:51:19;;;;;;;20.83;13.10;;;;;;;4.30;73.36;99588.20;124600;1097;104596;-72
2020/12/13 03:53:47;;;;;;;23.70;13.60;;;;;;;4.30;73.61;99585.56;124605;1095;104984;-71
2020/12/13 03:56:15;;;;;;;47.35;21.00;;;;;;;4.29;73.47;99593.61;124605;1095;104593;-74
2020/12/13 03:58:44;;;;;;;40.43;19.00;;;;;;;4.27;74.06;99591.13;124472;1095;104509;-73
2020/12/13 04:01:12;;;;;;;29.97;14.43;;;;;;;4.25;73.15;99595.70;124477;1095;104487;-72
2020/12/13 04:03:40;;;;;;;19.23;10.20;;;;;;;4.24;73.28;99588.73;124490;1096;104519;-72
2020/12/13 04:06:08;;;;;;;17.57;10.17;;;;;;;4.24;73.65;99593.18;124514;1095;104596;-71
2020/12/13 04:08:37;;;;;;;22.20;12.07;;;;;;;4.27;74.15;99590.27;124528;1095;104603;-72
2020/12/13 04:11:05;;;;;;;19.53;11.43;;;;;;;4.26;73.62;99596.53;124593;1096;104598;-72
2020/12/13 04:13:33;;;;;;;18.40;11.20;;;;;;;4.26;73.85;99585.96;124622;1095;104522;-72
2020/12/13 04:16:01;;;;;;;19.53;12.07;;;;;;;4.23;73.72;99592.32;124510;1095;105034;-71
2020/12/13 04:18:29;;;;;;;19.37;12.13;;;;;;;4.23;73.62;99594.96;124494;1095;104525;-73
2020/12/13 04:20:57;;;;;;;20.57;12.53;;;;;;;4.23;73.74;99591.48;124573;1095;104596;-73
2020/12/13 04:23:26;;;;;;;16.73;10.23;;;;;;;4.23;73.72;99594.96;124657;1095;104930;-71
2020/12/13 04:25:54;;;;;;;17.07;10.33;;;;;;;4.23;73.87;99589.68;124597;1095;104619;-71
2020/12/13 04:28:22;;;;;;;19.37;11.73;;;;;;;4.23;73.07;99587.04;124491;1095;104561;-71
2020/12/13 04:30:50;;;;;;;21.33;12.53;;;;;;;4.19;73.43;99590.91;124503;1095;104506;-73
2020/12/13 04:33:19;;;;;;;20.50;11.90;;;;;;;4.20;73.71;99591.77;124604;1095;104605;-74
2020/12/13 04:35:47;;;;;;;21.17;12.80;;;;;;;4.19;73.50;99593.55;124643;1095;104624;-71
2020/12/13 04:38:15;;;;;;;20.40;12.90;;;;;;;4.17;73.58;99595.48;124617;1096;104519;-73
2020/12/13 04:40:43;;;;;;;25.33;14.20;;;;;;;4.18;73.60;99599.81;124471;1095;104535;-71
2020/12/13 04:43:12;;;;;;;22.03;12.13;;;;;;;4.14;73.45;99598.39;124558;1096;104497;-73
2020/12/13 04:45:40;;;;;;;23.10;13.00;;;;;;;4.13;73.89;99599.34;124584;1097;104599;-73
2020/12/13 04:48:09;;;;;;;21.90;12.77;;;;;;;4.13;73.44;99596.70;124613;1095;104532;-73
2020/12/13 04:50:39;;;;;;;19.93;11.93;;;;;;;4.16;74.03;99606.16;124583;1095;104579;-72
2020/12/13 04:53:09;;;;;;;21.03;12.07;;;;;;;4.22;73.71;99601.22;124606;1095;104920;-73
2020/12/13 04:55:49;;;;;;;22.70;12.63;;;;;;;4.21;73.24;99603.98;124638;1095;104650;-72
2020/12/13 04:58:19;;;;;;;23.30;13.83;;;;;;;4.18;73.31;99610.38;124636;1095;104491;-71
2020/12/13 05:00:53;;;;;;;23.90;14.03;;;;;;;4.19;73.61;99606.75;124492;1095;104483;-71
2020/12/13 05:03:23;;;;;;;19.03;11.97;;;;;;;4.19;73.57;99612.03;124487;1095;104641;-72
2020/12/13 05:05:52;;;;;;;20.90;12.55;;;;;;;4.18;73.38;99612.19;124562;1097;104697;-73
2020/12/13 05:08:20;;;;;;;21.30;13.20;;;;;;;4.20;73.62;99616.36;124569;1095;104615;-73
2020/12/13 05:10:48;;;;;;;24.37;13.40;;;;;;;4.20;73.14;99615.53;124463;1095;104506;-73
2020/12/13 05:13:16;;;;;;;23.07;13.73;;;;;;;4.19;73.92;99609.39;124489;1095;104596;-71
2020/12/13 05:15:44;;;;;;;24.20;14.17;;;;;;;4.24;73.57;99619.59;124529;1095;104638;-73
2020/12/13 05:18:13;;;;;;;27.47;15.47;;;;;;;4.24;73.12;99614.30;124481;1097;104621;-72
2020/12/13 05:20:43;;;;;;;24.57;14.00;;;;;;;4.24;73.69;99617.77;124479;1095;104541;-74
2020/12/13 05:23:11;;;;;;;22.53;12.23;;;;;;;4.25;73.68;99615.97;124579;1097;104570;-72
2020/12/13 05:25:40;;;;;;;16.63;10.17;;;;;;;4.25;73.58;99626.53;124604;1095;104564;-74
2020/12/13 05:28:12;;;;;;;19.10;11.53;;;;;;;4.28;73.73;99629.75;124555;1095;105025;-74
2020/12/13 05:30:43;;;;;;;21.25;12.73;;;;;;;4.31;73.37;99629.52;124498;1095;104510;-74
2020/12/13 05:33:17;;;;;;;42.40;20.77;;;;;;;4.35;73.51;99634.52;124532;1095;104494;-74
2020/12/13 05:35:46;;;;;;;44.75;23.65;;;;;;;4.36;73.40;99636.20;124501;1095;104605;-73
2020/12/13 05:38:16;;;;;;;43.70;23.67;;;;;;;4.35;73.83;99638.02;124646;1096;104861;-72
2020/12/13 05:40:44;;;;;;;29.97;15.77;;;;;;;4.35;73.41;99638.02;124526;1095;104714;-74
2020/12/13 05:43:16;;;;;;;34.50;19.75;;;;;;;4.31;73.63;99642.72;124483;1095;104510;-71
2020/12/13 05:54:18;;;;;;;45.17;25.53;;;;;;;4.18;73.13;99649.98;124592;1095;104513;-72
2020/12/13 05:56:52;;;;;;;43.33;23.93;;;;;;;4.19;73.50;99651.64;124692;1095;104580;-74
2020/12/13 05:59:21;;;;;;;61.40;34.07;;;;;;;4.18;73.42;99655.27;124585;1095;104577;-72
2020/12/13 06:01:52;;;;;;;58.03;35.07;;;;;;;4.19;73.37;99654.28;124611;1095;104534;-72
2020/12/13 06:04:26;;;;;;;33.07;19.60;;;;;;;4.18;73.53;99651.79;124610;1095;104596;-73
2020/12/13 06:06:56;;;;;;;33.00;20.37;;;;;;;4.11;73.68;99659.36;124640;1095;104623;-73
2020/12/13 06:09:33;;;;;;;25.73;16.37;;;;;;;4.08;73.34;99664.88;124599;1095;104644;-72
2020/12/13 06:12:06;;;;;;;26.67;17.47;;;;;;;4.07;73.04;99664.05;124640;1095;104529;-72
2020/12/13 06:14:36;;;;;;;25.67;16.60;;;;;;;4.07;73.54;99671.14;124632;1095;104503;-74
2020/12/13 06:17:06;;;;;;;25.23;16.27;;;;;;;4.08;73.00;99675.44;124545;1095;104590;-72
2020/12/13 06:19:37;;;;;;;24.57;14.43;;;;;;;4.09;73.75;99685.05;124630;1095;104506;-74
2020/12/13 06:22:06;;;;;;;26.20;16.23;;;;;;;4.09;73.75;99682.41;124583;1095;104907;-73
2020/12/13 06:24:34;;;;;;;25.10;15.10;;;;;;;4.07;73.30;99681.70;124642;1095;104519;-75
2020/12/13 06:27:02;;;;;;;25.33;13.13;;;;;;;4.06;73.70;99682.66;124619;1095;104643;-73
2020/12/13 06:29:31;;;;;;;25.40;14.30;;;;;;;4.07;73.72;99679.06;124458;1095;104565;-72
2020/12/13 06:32:01;;;;;;;23.60;15.00;;;;;;;4.07;73.79;99686.98;124550;1095;104551;-72
2020/12/13 06:34:30;;;;;;;24.03;14.17;;;;;;;4.08;73.28;99684.23;124461;1097;104507;-71
2020/12/13 06:37:01;;;;;;;24.77;15.57;;;;;;;4.09;73.66;99685.88;124478;1095;104647;-72
2020/12/13 06:39:30;;;;;;;26.07;15.43;;;;;;;4.10;73.41;99694.67;124610;1095;104598;-73
2020/12/13 06:42:04;;;;;;;47.63;24.57;;;;;;;4.04;73.28;99692.50;124595;1095;104510;-72
2020/12/13 06:44:33;;;;;;;42.87;22.80;;;;;;;4.05;73.32;99694.20;124607;1095;104517;-73
2020/12/13 06:47:02;;;;;;;26.10;14.80;;;;;;;4.01;73.12;99698.88;124639;1095;104685;-73
2020/12/13 06:49:30;;;;;;;31.13;18.40;;;;;;;3.99;73.23;99703.45;124546;1095;104935;-72
2020/12/13 06:52:00;;;;;;;50.67;24.17;;;;;;;4.02;73.28;99705.85;124576;1095;104494;-71
2020/12/13 06:54:29;;;;;;;39.17;19.90;;;;;;;4.07;73.28;99705.47;124595;1095;104587;-71
2020/12/13 06:57:08;;;;;;;44.40;21.53;;;;;;;4.07;73.22;99702.83;124639;1096;104727;-70
2020/12/13 06:59:44;;;;;;;55.37;26.67;;;;;;;4.05;72.96;99710.86;124736;1095;104602;-69
2020/12/13 07:02:46;;;;;;;67.07;32.23;;;;;;;4.04;72.69;99711.84;124549;1095;104529;-69
2020/12/13 07:05:15;;;;;;;37.17;19.95;;;;;;;4.01;73.24;99732.37;124573;1095;104471;-70
2020/12/13 07:07:47;;;;;;;27.70;14.97;;;;;;;4.00;73.52;99733.31;124527;1095;104596;-72
2020/12/13 07:10:15;;;;;;;21.30;12.63;;;;;;;4.00;72.89;99728.03;124481;1095;104605;-70
2020/12/13 07:12:52;;;;;;;22.20;13.47;;;;;;;4.00;73.13;99735.95;124436;1095;104545;-69
2020/12/13 07:15:28;;;;;;;21.23;12.97;;;;;;;4.00;72.85;99743.88;124508;1095;104568;-70
2020/12/13 07:17:57;;;;;;;25.40;15.23;;;;;;;4.01;72.97;99740.28;124506;1095;104637;-66
2020/12/13 07:20:26;;;;;;;27.03;15.70;;;;;;;4.05;73.06;99755.74;124548;1090;104500;-67
2020/12/13 07:22:58;;;;;;;30.60;18.77;;;;;;;4.08;73.12;99749.37;124584;1090;104522;-67
2020/12/13 07:25:26;;;;;;;25.67;15.30;;;;;;;4.06;73.24;99754.80;124574;1090;104647;-67
2020/12/13 07:27:55;;;;;;;20.37;12.27;;;;;;;4.05;73.49;99754.91;124493;1095;104619;-70
2020/12/13 07:30:24;;;;;;;16.57;10.20;;;;;;;4.04;73.29;99751.45;124519;1095;104487;-67
2020/12/13 07:32:52;;;;;;;18.50;11.43;;;;;;;4.02;72.84;99753.37;124510;1095;104525;-69
2020/12/13 07:35:22;;;;;;;22.90;15.00;;;;;;;4.05;73.41;99762.84;124616;1095;104491;-68
2020/12/13 07:37:52;;;;;;;20.63;14.03;;;;;;;4.06;73.19;99759.22;124662;1095;104673;-71
2020/12/13 07:40:21;;;;;;;20.73;12.57;;;;;;;4.06;72.82;99760.08;124715;1090;104516;-69
2020/12/13 07:42:57;;;;;;;22.53;13.43;;;;;;;4.05;73.18;99757.55;124642;1090;104650;-70
2020/12/13 07:45:26;;;;;;;22.03;14.20;;;;;;;4.08;72.99;99762.57;124659;1090;104640;-70
2020/12/13 07:48:00;;;;;;;31.37;17.80;;;;;;;4.03;73.33;99767.40;124535;1095;104685;-72
2020/12/13 07:50:34;;;;;;;26.40;15.30;;;;;;;3.98;72.97;99766.92;124457;1095;104515;-71
2020/12/13 07:53:02;;;;;;;25.93;15.17;;;;;;;3.97;72.92;99767.90;124440;1095;104557;-70
2020/12/13 07:55:31;;;;;;;21.57;13.20;;;;;;;3.98;72.68;99773.03;124521;1096;104560;-71
2020/12/13 07:58:00;;;;;;;20.45;11.90;;;;;;;3.96;72.98;99776.77;124510;1095;104606;-71
2020/12/13 08:00:28;;;;;;;18.30;11.97;;;;;;;3.94;73.47;99776.88;124553;1090;104570;-75
2020/12/13 08:02:57;;;;;;;22.37;13.33;;;;;;;3.95;73.10;99780.38;124561;1090;105396;-73
2020/12/13 08:05:27;;;;;;;27.90;16.73;;;;;;;3.96;72.99;99779.41;124599;1090;104488;-71
2020/12/13 08:08:00;;;;;;;20.40;13.10;;;;;;;3.96;73.15;99787.33;124699;1095;104653;-72
2020/12/13 08:10:29;;;;;;;22.07;14.50;;;;;;;3.96;73.33;99782.05;124736;1089;104568;-72
2020/12/13 08:12:57;;;;;;;19.95;12.25;;;;;;;3.96;73.16;99788.16;124490;1090;104523;-72
2020/12/13 08:15:25;;;;;;;19.23;11.33;;;;;;;3.96;72.72;99800.52;124524;1089;104522;-70
2020/12/13 08:18:07;;;;;;;15.67;10.77;;;;;;;3.96;73.26;99797.88;124616;1090;104580;-73
2020/12/13 08:20:39;;;;;;;39.65;24.35;;;;;;;3.96;72.84;99795.24;124532;1089;104494;-73
2020/12/13 08:23:08;;;;;;;24.20;15.37;;;;;;;3.95;73.03;99793.58;124541;1090;104523;-71
2020/12/13 08:25:37;;;;;;;19.80;11.90;;;;;;;3.92;72.86;99795.47;124276;1095;104628;-71
2020/12/13 08:28:06;;;;;;;17.07;10.37;;;;;;;3.89;72.53;99801.02;124548;1090;104621;-72
2020/12/13 08:30:37;;;;;;;14.87;8.83;;;;;;;3.90;72.52;99802.67;124674;1090;104471;-74
2020/12/13 08:33:10;;;;;;;15.63;9.27;;;;;;;3.88;72.34;99801.96;124661;1089;104519;-72
2020/12/13 08:35:38;;;;;;;14.17;9.27;;;;;;;3.87;72.87;99808.22;124654;1095;104596;-72
2020/12/13 08:38:07;;;;;;;40.73;21.90;;;;;;;3.88;72.74;99812.52;124682;1095;104612;-74
2020/12/13 08:40:37;;;;;;;26.95;14.40;;;;;;;3.89;73.25;99816.84;124626;1096;104542;-74
2020/12/13 08:43:06;;;;;;;40.37;28.90;;;;;;;3.90;72.66;99822.96;124627;1095;104564;-76
2020/12/13 08:45:35;;;;;;;24.95;16.25;;;;;;;3.91;72.96;99830.77;124764;1095;104576;-72
2020/12/13 08:48:05;;;;;;;54.35;44.20;;;;;;;3.95;72.97;99820.81;124746;1095;104660;-71
2020/12/13 08:50:40;;;;;;;33.73;23.80;;;;;;;3.99;73.10;99829.33;124529;1090;104545;-72
2020/12/13 08:53:21;;;;;;;27.07;18.57;;;;;;;4.02;72.78;99827.29;124588;1090;104503;-72
2020/12/13 08:56:04;;;;;;;23.57;13.97;;;;;;;4.00;72.84;99826.55;124482;1090;104599;-71
2020/12/13 08:58:47;;;;;;;18.53;11.13;;;;;;;3.96;72.94;99827.75;124652;1090;104525;-77
2020/12/13 09:01:15;;;;;;;16.37;10.10;;;;;;;3.97;73.08;99833.89;124722;1090;104646;-71
2020/12/13 09:03:44;;;;;;;17.80;10.73;;;;;;;3.98;72.45;99835.55;124693;1089;104599;-74
2020/12/13 09:06:12;;;;;;;20.47;13.20;;;;;;;4.00;72.61;99844.19;124580;1090;104515;-73
2020/12/13 09:08:40;;;;;;;15.80;10.30;;;;;;;3.99;72.79;99845.17;124638;1090;104947;-74
2020/12/13 09:11:08;;;;;;;14.87;9.77;;;;;;;3.99;72.78;99837.25;124495;1090;104591;-74
2020/12/13 09:13:48;;;;;;;16.80;10.13;;;;;;;4.01;72.68;99840.60;124559;1090;104638;-74
2020/12/13 09:16:28;;;;;;;18.43;11.00;;;;;;;4.05;72.92;99842.87;124400;1097;104493;-73
2020/12/13 09:19:07;;;;;;;122.70;90.50;;;;;;;4.07;72.95;99845.39;124466;1096;104625;-72
2020/12/13 09:21:50;;;;;;;580.93;522.87;;;;;;;4.06;73.00;99835.78;124322;1096;104602;-73
2020/12/13 09:24:21;;;;;;;171.07;124.93;;;;;;;4.06;72.58;99841.06;124552;1089;104599;-74
2020/12/13 09:27:07;;;;;;;193.45;159.00;;;;;;;4.05;73.07;99839.40;124334;1090;104749;-75
2020/12/13 09:29:37;;;;;;;123.10;92.55;;;;;;;4.06;72.68;99838.42;124600;1090;104669;-72
2020/12/13 09:32:07;;;;;;;63.23;46.57;;;;;;;4.04;72.62;99830.64;124293;1097;104717;-74
2020/12/13 09:34:36;;;;;;;51.43;36.97;;;;;;;4.07;72.30;99835.66;124607;1095;104561;-73
2020/12/13 09:37:07;;;;;;;151.67;107.40;;;;;;;4.08;72.46;99828.58;124548;1097;104593;-74
2020/12/13 09:39:36;;;;;;;1149.15;773.45;;;;;;;4.11;72.72;99831.81;124631;1095;104605;-73
2020/12/13 09:42:05;;;;;;;1341.63;796.20;;;;;;;4.12;72.59;99830.03;124571;1095;104628;-73
2020/12/13 09:44:33;;;;;;;1130.70;704.77;;;;;;;4.13;72.60;99831.70;124539;1096;104598;-73
2020/12/13 09:47:02;;;;;;;768.43;455.40;;;;;;;4.11;72.05;99831.81;124581;1095;104520;-73
2020/12/13 09:49:31;;;;;;;1376.87;793.33;;;;;;;4.09;72.75;99839.02;124639;1096;104627;-74
2020/12/13 09:52:00;;;;;;;1191.43;705.10;;;;;;;4.07;72.26;99835.66;124681;1095;104656;-73
2020/12/13 09:54:29;;;;;;;890.67;530.67;;;;;;;4.07;72.63;99835.66;124442;1097;104496;-74
2020/12/13 09:56:57;;;;;;;926.77;562.27;;;;;;;4.07;72.12;99830.38;124451;1096;104608;-76
2020/12/13 09:59:26;;;;;;;719.40;454.67;;;;;;;4.08;72.57;99821.52;124501;1095;104691;-72
2020/12/13 10:01:54;;;;;;;534.00;334.23;;;;;;;4.08;72.36;99831.22;124593;1090;104526;-74
2020/12/13 10:04:23;;;;;;;220.20;96.75;;;;;;;4.09;72.29;99832.91;124429;1097;104532;-72
2020/12/13 10:07:14;;;;;;;270.45;177.55;;;;;;;4.10;72.49;99826.68;124511;1090;104525;-75
2020/12/13 10:09:42;;;;;;;116.37;62.47;;;;;;;4.08;71.95;99829.44;124623;1095;104669;-74
2020/12/13 10:12:10;;;;;;;347.25;284.45;;;;;;;4.10;72.71;99839.88;124621;1095;104592;-74
2020/12/13 10:14:39;;;;;;;195.87;143.93;;;;;;;4.10;72.05;99829.32;124583;1090;104512;-72
2020/12/13 10:17:07;;;;;;;197.25;143.65;;;;;;;4.11;72.29;99830.98;124632;1095;104612;-75
2020/12/13 10:19:35;;;;;;;178.87;136.27;;;;;;;4.15;72.32;99826.30;124670;1095;104593;-75
2020/12/13 10:22:04;;;;;;;257.37;205.10;;;;;;;4.16;72.30;99828.83;124605;1095;104536;-71
2020/12/13 10:24:32;;;;;;;104.25;69.35;;;;;;;4.18;71.78;99821.62;124590;1095;104589;-73
2020/12/13 10:27:00;;;;;;;64.43;42.00;;;;;;;4.23;72.26;99824.70;124611;1095;104535;-72
2020/12/13 10:29:28;;;;;;;86.53;58.80;;;;;;;4.24;71.85;99817.65;124598;1090;104914;-73
2020/12/13 10:31:57;;;;;;;116.67;88.00;;;;;;;4.24;72.14;99815.84;124553;1090;105052;-74
2020/12/13 10:34:25;;;;;;;118.47;86.47;;;;;;;4.25;72.30;99824.59;124574;1090;104522;-73
2020/12/13 10:36:54;;;;;;;77.13;52.07;;;;;;;4.21;72.16;99823.99;124649;1095;104496;-73
2020/12/13 10:39:23;;;;;;;138.70;102.73;;;;;;;4.14;71.67;99825.47;124644;1090;104704;-73
2020/12/13 10:41:54;;;;;;;135.90;86.93;;;;;;;4.10;71.92;99821.40;124586;1097;104541;-75
2020/12/13 10:44:22;;;;;;;74.80;42.67;;;;;;;4.09;72.19;99824.98;124687;1097;104696;-72
2020/12/13 10:46:51;;;;;;;131.97;100.10;;;;;;;4.09;72.36;99823.17;124550;1097;104493;-73
2020/12/13 10:49:19;;;;;;;72.10;46.70;;;;;;;4.11;72.04;99820.42;124644;1090;104638;-74
2020/12/13 10:51:48;;;;;;;56.17;38.63;;;;;;;4.12;72.54;99817.66;124552;1095;104522;-72
2020/12/13 10:54:16;;;;;;;46.10;24.45;;;;;;;4.15;71.78;99816.57;124488;1095;104516;-76
2020/12/13 10:56:44;;;;;;;45.07;28.83;;;;;;;4.16;71.40;99818.27;124632;1089;104519;-72
2020/12/13 10:59:13;;;;;;;85.10;50.25;;;;;;;4.17;71.87;99819.92;124654;1090;104577;-73
2020/12/13 11:01:45;;;;;;;82.03;56.03;;;;;;;4.15;72.12;99819.21;124475;1095;104578;-74
2020/12/13 11:04:16;;;;;;;53.87;34.33;;;;;;;4.25;72.15;99821.95;124536;1096;104582;-72
2020/12/13 11:06:46;;;;;;;61.47;46.13;;;;;;;4.30;71.34;99820.62;124611;1095;104497;-74
2020/12/13 11:09:15;;;;;;;72.00;48.60;;;;;;;4.30;71.83;99819.79;124613;1095;104689;-74
2020/12/13 11:11:43;;;;;;;98.03;58.70;;;;;;;4.29;71.65;99826.02;124614;1095;104890;-74
2020/12/13 11:14:11;;;;;;;50.00;29.70;;;;;;;4.30;71.98;99825.91;124595;1095;104609;-72
2020/12/13 11:16:39;;;;;;;54.87;26.10;;;;;;;4.20;71.91;99824.97;124616;1095;104538;-73
2020/12/13 11:19:08;;;;;;;37.87;18.63;;;;;;;4.19;71.76;99830.38;124729;1090;104616;-75
2020/12/13 11:21:43;;;;;;;65.90;33.97;;;;;;;4.22;71.73;99830.14;124585;1090;104921;-77
2020/12/13 11:24:11;;;;;;;59.10;32.65;;;;;;;4.24;71.51;99826.41;124711;1089;104590;-76
2020/12/13 11:26:39;;;;;;;34.20;18.00;;;;;;;4.25;71.74;99827.23;124490;1090;104603;-79
2020/12/13 11:29:07;;;;;;;43.77;19.73;;;;;;;4.29;71.76;99826.88;124894;1090;104688;-73